sensor_id;sensor_type;location;lat;lon;timestamp;pressure;altitude;pressure_sealevel;temperature;humidity
33161;BME280;19522;45.656;11.302;2022-11-20T00:01:05;97581.19;;;7.20;87.14
33161;BME280;19522;45.656;11.302;2022-11-20T00:03:31;97551.03;;;7.16;86.60
33161;BME280;19522;45.656;11.302;2022-11-20T00:06:04;97559.59;;;7.05;87.34
33161;BME280;19522;45.656;11.302;2022-11-20T00:08:30;97587.16;;;7.30;87.07
33161;BME280;19522;45.656;11.302;2022-11-20T00:10:56;97580.97;;;7.36;85.91
33161;BME280;19522;45.656;11.302;2022-11-20T00:13:21;97557.94;;;7.04;86.44
33161;BME280;19522;45.656;11.302;2022-11-20T00:15:47;97582.69;;;7.07;87.90
33161;BME280;19522;45.656;11.302;2022-11-20T00:18:13;97581.31;;;7.11;87.96
33161;BME280;19522;45.656;11.302;2022-11-20T00:20:38;97583.31;;;7.39;85.46
33161;BME280;19522;45.656;11.302;2022-11-20T00:23:04;97590.88;;;7.29;85.53
33161;BME280;19522;45.656;11.302;2022-11-20T00:25:31;97586.44;;;7.06;86.17
33161;BME280;19522;45.656;11.302;2022-11-20T00:27:56;97595.81;;;7.10;86.13
33161;BME280;19522;45.656;11.302;2022-11-20T00:30:22;97546.31;;;6.73;86.26
33161;BME280;19522;45.656;11.302;2022-11-20T00:32:47;97588.75;;;6.94;86.97
33161;BME280;19522;45.656;11.302;2022-11-20T00:35:13;97592.09;;;6.96;86.48
33161;BME280;19522;45.656;11.302;2022-11-20T00:37:38;97598.91;;;6.77;87.62
33161;BME280;19522;45.656;11.302;2022-11-20T00:40:04;97602.53;;;6.84;87.81
33161;BME280;19522;45.656;11.302;2022-11-20T00:42:30;97595.09;;;6.86;87.12
33161;BME280;19522;45.656;11.302;2022-11-20T00:44:57;97598.63;;;6.87;87.15
33161;BME280;19522;45.656;11.302;2022-11-20T00:47:23;97569.22;;;6.77;86.55
33161;BME280;19522;45.656;11.302;2022-11-20T00:49:48;97596.47;;;7.12;84.31
33161;BME280;19522;45.656;11.302;2022-11-20T00:52:14;97609.69;;;7.22;84.11
33161;BME280;19522;45.656;11.302;2022-11-20T00:54:39;97523.81;;;6.66;83.82
33161;BME280;19522;45.656;11.302;2022-11-20T00:57:05;97613.34;;;6.99;84.82
33161;BME280;19522;45.656;11.302;2022-11-20T00:59:30;97553.50;;;6.66;84.68
33161;BME280;19522;45.656;11.302;2022-11-20T01:01:56;97608.66;;;6.93;84.95
33161;BME280;19522;45.656;11.302;2022-11-20T01:04:24;97603.75;;;6.82;85.33
33161;BME280;19522;45.656;11.302;2022-11-20T01:06:49;97604.19;;;6.70;85.90
33161;BME280;19522;45.656;11.302;2022-11-20T01:09:15;97611.34;;;6.48;86.58
33161;BME280;19522;45.656;11.302;2022-11-20T01:11:42;97615.91;;;6.24;88.53
33161;BME280;19522;45.656;11.302;2022-11-20T01:14:18;97594.59;;;5.83;89.67
33161;BME280;19522;45.656;11.302;2022-11-20T01:16:51;97605.97;;;6.02;91.21
33161;BME280;19522;45.656;11.302;2022-11-20T01:19:21;97608.53;;;6.18;90.10
33161;BME280;19522;45.656;11.302;2022-11-20T01:21:51;97526.16;;;5.69;88.95
33161;BME280;19522;45.656;11.302;2022-11-20T01:24:18;97610.88;;;6.21;88.72
33161;BME280;19522;45.656;11.302;2022-11-20T01:26:46;97597.88;;;6.02;89.38
33161;BME280;19522;45.656;11.302;2022-11-20T01:29:38;97617.09;;;5.99;89.84
33161;BME280;19522;45.656;11.302;2022-11-20T01:32:04;97568.31;;;5.85;88.21
33161;BME280;19522;45.656;11.302;2022-11-20T01:34:29;97620.34;;;6.17;87.86
33161;BME280;19522;45.656;11.302;2022-11-20T01:36:55;97617.59;;;6.26;87.32
33161;BME280;19522;45.656;11.302;2022-11-20T01:39:25;97624.47;;;6.28;87.00
33161;BME280;19522;45.656;11.302;2022-11-20T01:41:52;97607.81;;;6.01;87.67
33161;BME280;19522;45.656;11.302;2022-11-20T01:44:48;97630.41;;;6.00;88.57
33161;BME280;19522;45.656;11.302;2022-11-20T01:47:19;97622.69;;;5.89;89.23
33161;BME280;19522;45.656;11.302;2022-11-20T01:49:50;97587.38;;;5.84;88.05
33161;BME280;19522;45.656;11.302;2022-11-20T01:52:21;97632.88;;;6.10;87.67
33161;BME280;19522;45.656;11.302;2022-11-20T01:55:09;97612.03;;;5.96;87.54
33161;BME280;19522;45.656;11.302;2022-11-20T01:57:38;97596.47;;;5.83;87.54
33161;BME280;19522;45.656;11.302;2022-11-20T02:00:10;97609.03;;;5.67;88.59
33161;BME280;19522;45.656;11.302;2022-11-20T02:02:37;97599.69;;;5.55;89.79
33161;BME280;19522;45.656;11.302;2022-11-20T02:05:16;97610.22;;;5.65;90.00
33161;BME280;19522;45.656;11.302;2022-11-20T02:07:43;97615.97;;;5.61;90.01
33161;BME280;19522;45.656;11.302;2022-11-20T02:10:09;97615.97;;;5.61;89.94
33161;BME280;19522;45.656;11.302;2022-11-20T02:12:35;97623.47;;;5.74;89.13
33161;BME280;19522;45.656;11.302;2022-11-20T02:15:19;97603.53;;;5.60;89.50
33161;BME280;19522;45.656;11.302;2022-11-20T02:17:44;97610.88;;;5.67;89.80
33161;BME280;19522;45.656;11.302;2022-11-20T02:20:10;97609.25;;;5.57;89.98
33161;BME280;19522;45.656;11.302;2022-11-20T02:22:46;97594.44;;;5.61;88.59
33161;BME280;19522;45.656;11.302;2022-11-20T02:25:14;97615.94;;;5.70;88.69
33161;BME280;19522;45.656;11.302;2022-11-20T02:27:40;97617.41;;;5.72;88.67
33161;BME280;19522;45.656;11.302;2022-11-20T02:30:06;97596.03;;;5.48;88.93
33161;BME280;19522;45.656;11.302;2022-11-20T02:32:37;97618.03;;;5.83;88.13
33161;BME280;19522;45.656;11.302;2022-11-20T02:35:35;97626.41;;;5.88;87.53
33161;BME280;19522;45.656;11.302;2022-11-20T02:37:56;97592.72;;;5.37;89.04
33161;BME280;19522;45.656;11.302;2022-11-20T02:40:22;97621.03;;;5.56;89.38
33161;BME280;19522;45.656;11.302;2022-11-20T02:42:52;97622.06;;;5.55;89.38
33161;BME280;19522;45.656;11.302;2022-11-20T02:45:17;97621.31;;;5.70;88.52
33161;BME280;19522;45.656;11.302;2022-11-20T02:47:43;97620.41;;;5.77;87.17
33161;BME280;19522;45.656;11.302;2022-11-20T02:50:08;97592.28;;;5.57;87.29
33161;BME280;19522;45.656;11.302;2022-11-20T02:52:34;97584.72;;;5.52;87.37
33161;BME280;19522;45.656;11.302;2022-11-20T02:54:59;97623.72;;;5.56;87.78
33161;BME280;19522;45.656;11.302;2022-11-20T02:57:25;97573.13;;;5.12;88.60
33161;BME280;19522;45.656;11.302;2022-11-20T02:59:51;97623.81;;;5.40;89.00
33161;BME280;19522;45.656;11.302;2022-11-20T03:02:16;97585.94;;;5.41;87.29
33161;BME280;19522;45.656;11.302;2022-11-20T03:04:42;97626.38;;;5.65;86.44
33161;BME280;19522;45.656;11.302;2022-11-20T03:07:08;97626.75;;;5.61;87.33
33161;BME280;19522;45.656;11.302;2022-11-20T03:09:33;97622.63;;;5.42;87.86
33161;BME280;19522;45.656;11.302;2022-11-20T03:11:59;97613.97;;;5.24;89.26
33161;BME280;19522;45.656;11.302;2022-11-20T03:14:24;97620.50;;;5.29;89.19
33161;BME280;19522;45.656;11.302;2022-11-20T03:16:50;97600.72;;;5.14;89.19
33161;BME280;19522;45.656;11.302;2022-11-20T03:19:16;97637.34;;;5.32;88.70
33161;BME280;19522;45.656;11.302;2022-11-20T03:21:41;97632.50;;;5.58;86.62
33161;BME280;19522;45.656;11.302;2022-11-20T03:24:07;97626.97;;;5.52;86.38
33161;BME280;19522;45.656;11.302;2022-11-20T03:26:33;97638.50;;;5.37;88.18
33161;BME280;19522;45.656;11.302;2022-11-20T03:29:00;97615.53;;;5.10;88.29
33161;BME280;19522;45.656;11.302;2022-11-20T03:31:29;97645.25;;;5.25;87.81
33161;BME280;19522;45.656;11.302;2022-11-20T03:33:56;97649.47;;;5.19;87.81
33161;BME280;19522;45.656;11.302;2022-11-20T03:36:22;97644.06;;;5.27;87.24
33161;BME280;19522;45.656;11.302;2022-11-20T03:38:48;97651.66;;;5.24;86.17
33161;BME280;19522;45.656;11.302;2022-11-20T03:41:20;97640.88;;;5.24;86.13
33161;BME280;19522;45.656;11.302;2022-11-20T03:43:57;97617.53;;;5.16;85.10
33161;BME280;19522;45.656;11.302;2022-11-20T03:46:23;97649.09;;;5.30;85.48
33161;BME280;19522;45.656;11.302;2022-11-20T03:48:49;97650.13;;;5.29;85.35
33161;BME280;19522;45.656;11.302;2022-11-20T03:51:23;97641.28;;;5.04;86.67
33161;BME280;19522;45.656;11.302;2022-11-20T03:53:49;97660.66;;;4.99;87.41
33161;BME280;19522;45.656;11.302;2022-11-20T03:56:20;97664.03;;;4.93;87.86
33161;BME280;19522;45.656;11.302;2022-11-20T03:58:45;97668.41;;;4.94;87.79
33161;BME280;19522;45.656;11.302;2022-11-20T04:01:13;97675.16;;;4.82;88.42
33161;BME280;19522;45.656;11.302;2022-11-20T04:03:41;97681.91;;;4.53;89.51
33161;BME280;19522;45.656;11.302;2022-11-20T04:06:12;97678.88;;;4.64;89.20
33161;BME280;19522;45.656;11.302;2022-11-20T04:08:38;97676.63;;;4.93;88.17
33161;BME280;19522;45.656;11.302;2022-11-20T04:11:34;97679.19;;;4.78;88.10
33161;BME280;19522;45.656;11.302;2022-11-20T04:14:03;97679.34;;;4.76;88.56
33161;BME280;19522;45.656;11.302;2022-11-20T04:16:30;97678.84;;;4.81;88.01
33161;BME280;19522;45.656;11.302;2022-11-20T04:19:03;97682.53;;;4.80;87.77
33161;BME280;19522;45.656;11.302;2022-11-20T04:21:28;97645.56;;;4.57;87.85
33161;BME280;19522;45.656;11.302;2022-11-20T04:23:55;97677.84;;;4.82;87.40
33161;BME280;19522;45.656;11.302;2022-11-20T04:26:22;97682.88;;;4.77;87.04
33161;BME280;19522;45.656;11.302;2022-11-20T04:28:48;97681.34;;;4.91;86.05
33161;BME280;19522;45.656;11.302;2022-11-20T04:31:20;97689.09;;;4.77;86.35
33161;BME280;19522;45.656;11.302;2022-11-20T04:33:46;97691.63;;;4.79;86.38
33161;BME280;19522;45.656;11.302;2022-11-20T04:36:13;97682.38;;;4.73;86.90
33161;BME280;19522;45.656;11.302;2022-11-20T04:38:40;97596.88;;;4.11;86.82
33161;BME280;19522;45.656;11.302;2022-11-20T04:41:09;97673.31;;;4.33;87.57
33161;BME280;19522;45.656;11.302;2022-11-20T04:43:38;97689.63;;;4.73;86.50
33161;BME280;19522;45.656;11.302;2022-11-20T04:46:07;97666.44;;;4.63;86.09
33161;BME280;19522;45.656;11.302;2022-11-20T04:48:32;97687.22;;;4.86;85.01
33161;BME280;19522;45.656;11.302;2022-11-20T04:51:03;97693.63;;;4.77;85.90
33161;BME280;19522;45.656;11.302;2022-11-20T04:53:29;97697.53;;;4.66;86.01
33161;BME280;19522;45.656;11.302;2022-11-20T04:56:04;97701.03;;;4.58;86.66
33161;BME280;19522;45.656;11.302;2022-11-20T04:58:30;97695.16;;;4.46;87.35
33161;BME280;19522;45.656;11.302;2022-11-20T05:01:04;97694.84;;;4.66;86.50
33161;BME280;19522;45.656;11.302;2022-11-20T05:03:30;97700.72;;;4.61;86.40
33161;BME280;19522;45.656;11.302;2022-11-20T05:05:56;97686.59;;;4.59;86.35
33161;BME280;19522;45.656;11.302;2022-11-20T05:08:24;97677.53;;;4.52;86.41
33161;BME280;19522;45.656;11.302;2022-11-20T05:10:50;97700.72;;;4.53;87.01
33161;BME280;19522;45.656;11.302;2022-11-20T05:13:15;97699.19;;;4.34;87.82
33161;BME280;19522;45.656;11.302;2022-11-20T05:15:41;97686.09;;;4.23;88.27
33161;BME280;19522;45.656;11.302;2022-11-20T05:18:06;97705.75;;;4.31;88.55
33161;BME280;19522;45.656;11.302;2022-11-20T05:20:32;97655.69;;;4.05;88.16
33161;BME280;19522;45.656;11.302;2022-11-20T05:22:58;97707.59;;;4.47;87.40
33161;BME280;19522;45.656;11.302;2022-11-20T05:25:24;97718.19;;;4.32;86.85
33161;BME280;19522;45.656;11.302;2022-11-20T05:27:49;97710.78;;;4.26;86.86
33161;BME280;19522;45.656;11.302;2022-11-20T05:30:15;97627.72;;;3.65;86.53
33161;BME280;19522;45.656;11.302;2022-11-20T05:32:40;97701.06;;;4.33;85.59
33161;BME280;19522;45.656;11.302;2022-11-20T05:35:06;97717.53;;;4.63;84.21
33161;BME280;19522;45.656;11.302;2022-11-20T05:37:32;97724.06;;;4.36;85.78
33161;BME280;19522;45.656;11.302;2022-11-20T05:39:57;97700.34;;;4.15;85.45
33161;BME280;19522;45.656;11.302;2022-11-20T05:42:23;97688.41;;;4.01;85.87
33161;BME280;19522;45.656;11.302;2022-11-20T05:44:58;97720.84;;;4.16;86.26
33161;BME280;19522;45.656;11.302;2022-11-20T05:47:25;97703.72;;;4.09;86.17
33161;BME280;19522;45.656;11.302;2022-11-20T05:49:50;97726.56;;;4.29;86.28
33161;BME280;19522;45.656;11.302;2022-11-20T05:52:16;97658.66;;;3.78;86.69
33161;BME280;19522;45.656;11.302;2022-11-20T05:54:45;97720.19;;;4.14;87.25
33161;BME280;19522;45.656;11.302;2022-11-20T05:57:10;97730.75;;;4.07;87.65
33161;BME280;19522;45.656;11.302;2022-11-20T05:59:36;97729.91;;;4.07;87.77
33161;BME280;19522;45.656;11.302;2022-11-20T06:02:01;97730.94;;;4.14;87.06
33161;BME280;19522;45.656;11.302;2022-11-20T06:04:27;97736.31;;;4.14;86.94
33161;BME280;19522;45.656;11.302;2022-11-20T06:06:52;97736.19;;;4.40;85.79
33161;BME280;19522;45.656;11.302;2022-11-20T06:09:18;97736.00;;;4.42;84.53
33161;BME280;19522;45.656;11.302;2022-11-20T06:11:43;97739.66;;;4.16;85.95
33161;BME280;19522;45.656;11.302;2022-11-20T06:14:09;97738.88;;;4.32;85.06
33161;BME280;19522;45.656;11.302;2022-11-20T06:16:34;97726.41;;;4.23;84.83
33161;BME280;19522;45.656;11.302;2022-11-20T06:19:00;97725.91;;;4.27;84.56
33161;BME280;19522;45.656;11.302;2022-11-20T06:21:26;97748.06;;;4.13;85.55
33161;BME280;19522;45.656;11.302;2022-11-20T06:23:52;97710.72;;;3.85;86.01
33161;BME280;19522;45.656;11.302;2022-11-20T06:26:20;97729.56;;;4.10;85.05
33161;BME280;19522;45.656;11.302;2022-11-20T06:28:46;97755.31;;;4.20;85.45
33161;BME280;19522;45.656;11.302;2022-11-20T06:31:14;97753.25;;;4.06;86.36
33161;BME280;19522;45.656;11.302;2022-11-20T06:33:40;97748.31;;;3.85;88.01
33161;BME280;19522;45.656;11.302;2022-11-20T06:36:06;97751.69;;;3.87;88.87
33161;BME280;19522;45.656;11.302;2022-11-20T06:38:32;97761.41;;;3.80;88.89
33161;BME280;19522;45.656;11.302;2022-11-20T06:40:58;97757.03;;;3.79;88.98
33161;BME280;19522;45.656;11.302;2022-11-20T06:43:24;97745.91;;;3.73;89.02
33161;BME280;19522;45.656;11.302;2022-11-20T06:45:57;97767.28;;;3.83;89.23
33161;BME280;19522;45.656;11.302;2022-11-20T06:48:25;97738.75;;;3.82;88.79
33161;BME280;19522;45.656;11.302;2022-11-20T06:50:50;97752.97;;;3.74;88.78
33161;BME280;19522;45.656;11.302;2022-11-20T06:53:16;97719.94;;;3.39;89.56
33161;BME280;19522;45.656;11.302;2022-11-20T06:55:43;97756.91;;;3.54;89.80
33161;BME280;19522;45.656;11.302;2022-11-20T06:58:09;97765.56;;;3.74;89.15
33161;BME280;19522;45.656;11.302;2022-11-20T07:00:35;97777.88;;;3.93;88.35
33161;BME280;19522;45.656;11.302;2022-11-20T07:03:08;97776.19;;;3.92;88.13
33161;BME280;19522;45.656;11.302;2022-11-20T07:05:35;97785.44;;;3.89;88.48
33161;BME280;19522;45.656;11.302;2022-11-20T07:08:01;97778.09;;;4.00;88.39
33161;BME280;19522;45.656;11.302;2022-11-20T07:10:27;97718.53;;;3.70;88.34
33161;BME280;19522;45.656;11.302;2022-11-20T07:12:53;97756.75;;;3.98;87.95
33161;BME280;19522;45.656;11.302;2022-11-20T07:15:19;97742.78;;;3.95;87.36
33161;BME280;19522;45.656;11.302;2022-11-20T07:17:45;97785.69;;;4.21;86.81
33161;BME280;19522;45.656;11.302;2022-11-20T07:20:11;97792.78;;;4.30;86.01
33161;BME280;19522;45.656;11.302;2022-11-20T07:22:37;97736.13;;;4.24;83.86
33161;BME280;19522;45.656;11.302;2022-11-20T07:25:04;97796.84;;;4.59;83.50
33161;BME280;19522;45.656;11.302;2022-11-20T07:27:30;97789.63;;;4.51;84.05
33161;BME280;19522;45.656;11.302;2022-11-20T07:29:55;97766.06;;;4.29;85.08
33161;BME280;19522;45.656;11.302;2022-11-20T07:32:21;97797.16;;;4.31;86.16
33161;BME280;19522;45.656;11.302;2022-11-20T07:34:47;97759.06;;;3.85;87.39
33161;BME280;19522;45.656;11.302;2022-11-20T07:37:13;97802.34;;;4.25;87.46
33161;BME280;19522;45.656;11.302;2022-11-20T07:39:38;97800.19;;;4.36;86.70
33161;BME280;19522;45.656;11.302;2022-11-20T07:42:04;97794.28;;;4.33;87.17
33161;BME280;19522;45.656;11.302;2022-11-20T07:44:30;97759.63;;;4.05;88.46
33161;BME280;19522;45.656;11.302;2022-11-20T07:46:56;97793.78;;;4.29;89.16
33161;BME280;19522;45.656;11.302;2022-11-20T07:49:21;97793.47;;;4.49;88.76
33161;BME280;19522;45.656;11.302;2022-11-20T07:51:50;97729.91;;;4.07;89.45
33161;BME280;19522;45.656;11.302;2022-11-20T07:54:15;97796.34;;;4.56;89.56
33161;BME280;19522;45.656;11.302;2022-11-20T07:56:41;97796.84;;;4.51;89.58
33161;BME280;19522;45.656;11.302;2022-11-20T07:59:06;97796.53;;;4.71;89.44
33161;BME280;19522;45.656;11.302;2022-11-20T08:01:32;97798.56;;;4.85;88.25
33161;BME280;19522;45.656;11.302;2022-11-20T08:03:57;97790.16;;;4.96;88.47
33161;BME280;19522;45.656;11.302;2022-11-20T08:06:23;97781.41;;;5.03;87.55
33161;BME280;19522;45.656;11.302;2022-11-20T08:08:50;97801.22;;;5.26;86.45
33161;BME280;19522;45.656;11.302;2022-11-20T08:11:16;97796.03;;;5.17;86.93
33161;BME280;19522;45.656;11.302;2022-11-20T08:14:14;97767.09;;;5.02;86.31
33161;BME280;19522;45.656;11.302;2022-11-20T08:16:47;97773.66;;;5.16;85.50
33161;BME280;19522;45.656;11.302;2022-11-20T08:19:14;97801.03;;;5.44;84.86
33161;BME280;19522;45.656;11.302;2022-11-20T08:21:40;97800.31;;;5.59;83.35
33161;BME280;19522;45.656;11.302;2022-11-20T08:24:07;97795.25;;;5.72;81.98
33161;BME280;19522;45.656;11.302;2022-11-20T08:26:33;97793.38;;;5.81;81.24
33161;BME280;19522;45.656;11.302;2022-11-20T08:28:59;97760.22;;;5.72;79.83
33161;BME280;19522;45.656;11.302;2022-11-20T08:31:26;97778.13;;;6.05;78.07
33161;BME280;19522;45.656;11.302;2022-11-20T08:33:52;97800.94;;;6.26;77.81
33161;BME280;19522;45.656;11.302;2022-11-20T08:36:19;97802.28;;;6.30;77.66
33161;BME280;19522;45.656;11.302;2022-11-20T08:38:49;97782.34;;;6.31;77.00
33161;BME280;19522;45.656;11.302;2022-11-20T08:41:15;97798.22;;;6.57;76.65
33161;BME280;19522;45.656;11.302;2022-11-20T08:43:58;97805.09;;;6.68;76.54
33161;BME280;19522;45.656;11.302;2022-11-20T08:46:26;97811.25;;;6.77;75.79
33161;BME280;19522;45.656;11.302;2022-11-20T08:48:53;97767.34;;;6.60;75.60
33161;BME280;19522;45.656;11.302;2022-11-20T08:51:19;97806.22;;;6.97;75.25
33161;BME280;19522;45.656;11.302;2022-11-20T08:53:46;97800.56;;;7.07;75.57
33161;BME280;19522;45.656;11.302;2022-11-20T08:56:13;97714.53;;;6.65;75.10
33161;BME280;19522;45.656;11.302;2022-11-20T08:58:38;97757.56;;;7.05;74.35
33161;BME280;19522;45.656;11.302;2022-11-20T09:01:04;97816.59;;;7.61;73.42
33161;BME280;19522;45.656;11.302;2022-11-20T09:03:30;97802.06;;;7.77;72.73
33161;BME280;19522;45.656;11.302;2022-11-20T09:06:00;97799.91;;;7.88;72.36
33161;BME280;19522;45.656;11.302;2022-11-20T09:08:27;97763.09;;;7.87;71.91
33161;BME280;19522;45.656;11.302;2022-11-20T09:10:54;97800.44;;;8.28;71.01
33161;BME280;19522;45.656;11.302;2022-11-20T09:13:20;97762.91;;;8.40;69.01
33161;BME280;19522;45.656;11.302;2022-11-20T09:15:46;97788.81;;;9.08;66.93
33161;BME280;19522;45.656;11.302;2022-11-20T09:18:13;97787.50;;;9.89;67.51
33161;BME280;19522;45.656;11.302;2022-11-20T09:20:38;97792.44;;;10.82;65.22
33161;BME280;19522;45.656;11.302;2022-11-20T09:23:04;97785.59;;;11.67;60.22
33161;BME280;19522;45.656;11.302;2022-11-20T09:25:30;97743.06;;;12.38;61.94
33161;BME280;19522;45.656;11.302;2022-11-20T09:27:57;97804.50;;;13.62;54.87
33161;BME280;19522;45.656;11.302;2022-11-20T09:30:23;97774.91;;;14.40;52.64
33161;BME280;19522;45.656;11.302;2022-11-20T09:32:49;97798.19;;;15.34;48.06
33161;BME280;19522;45.656;11.302;2022-11-20T09:35:15;97806.94;;;16.02;47.84
33161;BME280;19522;45.656;11.302;2022-11-20T09:37:41;97806.38;;;16.41;45.35
33161;BME280;19522;45.656;11.302;2022-11-20T09:40:22;97768.84;;;17.11;43.89
33161;BME280;19522;45.656;11.302;2022-11-20T09:51:50;97787.38;;;19.55;37.32
33161;BME280;19522;45.656;11.302;2022-11-20T09:54:20;97781.13;;;19.33;36.38
33161;BME280;19522;45.656;11.302;2022-11-20T09:56:53;97750.88;;;18.78;37.33
33161;BME280;19522;45.656;11.302;2022-11-20T09:59:29;97788.50;;;19.59;37.03
33161;BME280;19522;45.656;11.302;2022-11-20T10:01:59;97778.47;;;19.43;38.25
33161;BME280;19522;45.656;11.302;2022-11-20T10:04:26;97791.59;;;20.01;35.95
33161;BME280;19522;45.656;11.302;2022-11-20T10:09:38;97790.25;;;20.67;36.07
33161;BME280;19522;45.656;11.302;2022-11-20T10:22:35;97750.75;;;19.92;36.50
33161;BME280;19522;45.656;11.302;2022-11-20T10:25:18;97771.72;;;19.28;38.22
33161;BME280;19522;45.656;11.302;2022-11-20T10:28:09;97778.16;;;18.84;39.29
33161;BME280;19522;45.656;11.302;2022-11-20T10:30:41;97780.03;;;19.34;39.41
33161;BME280;19522;45.656;11.302;2022-11-20T10:33:18;97781.53;;;20.27;38.20
33161;BME280;19522;45.656;11.302;2022-11-20T10:38:38;97778.22;;;20.25;37.21
33161;BME280;19522;45.656;11.302;2022-11-20T10:41:05;97763.81;;;20.76;36.11
33161;BME280;19522;45.656;11.302;2022-11-20T10:46:25;97742.34;;;20.20;36.50
33161;BME280;19522;45.656;11.302;2022-11-20T10:48:55;97764.38;;;20.15;36.75
33161;BME280;19522;45.656;11.302;2022-11-20T10:54:03;97765.44;;;19.66;37.16
33161;BME280;19522;45.656;11.302;2022-11-20T11:01:30;97768.03;;;17.62;41.56
33161;BME280;19522;45.656;11.302;2022-11-20T11:03:56;97727.19;;;18.05;39.26
33161;BME280;19522;45.656;11.302;2022-11-20T11:06:31;97761.00;;;18.50;37.86
33161;BME280;19522;45.656;11.302;2022-11-20T11:09:04;97725.41;;;19.20;38.25
33161;BME280;19522;45.656;11.302;2022-11-20T11:11:34;97761.41;;;18.86;37.63
33161;BME280;19522;45.656;11.302;2022-11-20T11:14:11;97757.22;;;18.56;38.92
33161;BME280;19522;45.656;11.302;2022-11-20T11:16:49;97721.25;;;18.35;38.27
33161;BME280;19522;45.656;11.302;2022-11-20T11:19:16;97742.09;;;17.53;39.81
33161;BME280;19522;45.656;11.302;2022-11-20T11:21:56;97721.22;;;16.43;42.26
33161;BME280;19522;45.656;11.302;2022-11-20T11:24:28;97756.88;;;16.60;42.32
33161;BME280;19522;45.656;11.302;2022-11-20T11:27:02;97756.28;;;17.33;43.05
33161;BME280;19522;45.656;11.302;2022-11-20T11:29:33;97752.22;;;17.18;42.55
33161;BME280;19522;45.656;11.302;2022-11-20T11:32:12;97740.88;;;18.22;41.18
33161;BME280;19522;45.656;11.302;2022-11-20T11:34:41;97726.59;;;18.69;38.98
33161;BME280;19522;45.656;11.302;2022-11-20T11:37:31;97741.16;;;17.64;40.63
33161;BME280;19522;45.656;11.302;2022-11-20T11:39:58;97705.66;;;18.19;39.22
33161;BME280;19522;45.656;11.302;2022-11-20T11:42:23;97730.78;;;19.05;38.00
33161;BME280;19522;45.656;11.302;2022-11-20T11:44:49;97729.56;;;18.68;39.06
33161;BME280;19522;45.656;11.302;2022-11-20T11:55:37;97727.66;;;18.19;39.05
33161;BME280;19522;45.656;11.302;2022-11-20T12:00:40;97720.75;;;18.66;38.97
33161;BME280;19522;45.656;11.302;2022-11-20T12:03:14;97724.91;;;18.68;38.02
33161;BME280;19522;45.656;11.302;2022-11-20T12:05:49;97731.03;;;17.87;39.57
33161;BME280;19522;45.656;11.302;2022-11-20T12:08:30;97712.94;;;17.69;40.68
33161;BME280;19522;45.656;11.302;2022-11-20T12:11:14;97734.06;;;17.00;40.58
33161;BME280;19522;45.656;11.302;2022-11-20T12:13:57;97736.06;;;16.59;41.79
33161;BME280;19522;45.656;11.302;2022-11-20T12:16:35;97735.19;;;16.87;42.34
33161;BME280;19522;45.656;11.302;2022-11-20T12:19:01;97702.22;;;15.48;43.01
33161;BME280;19522;45.656;11.302;2022-11-20T12:21:57;97731.47;;;16.47;42.94
33161;BME280;19522;45.656;11.302;2022-11-20T12:30:16;97723.28;;;17.27;41.14
33161;BME280;19522;45.656;11.302;2022-11-20T12:43:21;97717.34;;;16.56;40.51
33161;BME280;19522;45.656;11.302;2022-11-20T12:46:42;97717.19;;;16.91;40.82
33161;BME280;19522;45.656;11.302;2022-11-20T12:49:20;97717.53;;;16.95;40.62
33161;BME280;19522;45.656;11.302;2022-11-20T12:57:53;97721.31;;;17.23;45.24
33161;BME280;19522;45.656;11.302;2022-11-20T13:00:21;97710.13;;;18.03;41.21
33161;BME280;19522;45.656;11.302;2022-11-20T13:03:08;97710.09;;;18.69;40.60
33161;BME280;19522;45.656;11.302;2022-11-20T13:08:36;97722.22;;;17.46;42.84
33161;BME280;19522;45.656;11.302;2022-11-20T13:19:15;97704.38;;;16.51;44.93
33161;BME280;19522;45.656;11.302;2022-11-20T13:21:43;97720.63;;;16.00;44.99
33161;BME280;19522;45.656;11.302;2022-11-20T13:27:17;97728.53;;;14.03;48.60
33161;BME280;19522;45.656;11.302;2022-11-20T13:29:45;97684.41;;;13.25;50.44
33161;BME280;19522;45.656;11.302;2022-11-20T13:32:17;97740.19;;;13.73;50.29
33161;BME280;19522;45.656;11.302;2022-11-20T13:34:54;97730.84;;;13.81;50.03
33161;BME280;19522;45.656;11.302;2022-11-20T13:37:38;97726.84;;;13.83;50.60
33161;BME280;19522;45.656;11.302;2022-11-20T13:45:22;97727.53;;;13.09;52.12
33161;BME280;19522;45.656;11.302;2022-11-20T13:47:49;97727.00;;;12.69;52.63
33161;BME280;19522;45.656;11.302;2022-11-20T13:50:15;97722.22;;;12.64;53.51
33161;BME280;19522;45.656;11.302;2022-11-20T13:53:06;97719.91;;;12.61;53.52
33161;BME280;19522;45.656;11.302;2022-11-20T13:55:59;97683.53;;;12.17;53.83
33161;BME280;19522;45.656;11.302;2022-11-20T13:58:53;97719.19;;;12.40;54.58
33161;BME280;19522;45.656;11.302;2022-11-20T14:01:29;97722.41;;;12.30;54.43
33161;BME280;19522;45.656;11.302;2022-11-20T14:03:56;97728.81;;;12.43;54.84
33161;BME280;19522;45.656;11.302;2022-11-20T14:06:28;97708.03;;;12.49;54.75
33161;BME280;19522;45.656;11.302;2022-11-20T14:08:54;97727.66;;;12.64;55.37
33161;BME280;19522;45.656;11.302;2022-11-20T14:11:25;97734.97;;;12.63;55.04
33161;BME280;19522;45.656;11.302;2022-11-20T14:14:01;97736.13;;;12.81;55.35
33161;BME280;19522;45.656;11.302;2022-11-20T14:16:33;97740.03;;;12.92;55.23
33161;BME280;19522;45.656;11.302;2022-11-20T14:21:48;97730.66;;;12.81;56.29
33161;BME280;19522;45.656;11.302;2022-11-20T14:24:19;97687.78;;;12.44;56.52
33161;BME280;19522;45.656;11.302;2022-11-20T14:26:46;97719.38;;;12.77;55.31
33161;BME280;19522;45.656;11.302;2022-11-20T14:29:20;97713.16;;;12.70;54.20
33161;BME280;19522;45.656;11.302;2022-11-20T14:31:50;97715.22;;;12.75;55.35
33161;BME280;19522;45.656;11.302;2022-11-20T14:34:23;97720.34;;;12.58;55.49
33161;BME280;19522;45.656;11.302;2022-11-20T14:36:53;97696.88;;;12.57;54.80
33161;BME280;19522;45.656;11.302;2022-11-20T14:39:22;97715.38;;;13.05;54.45